Terminal Aerodrome Forecast
Issued by NWS

Home | Current Version | Previous Version | Text Only | Print | Product List | Glossary Off
Versions: 1 2 3 4 5 6 7 8 9 10 11 12 13 14 15 16 17

664
FTUS43 KTOP 211136
TAFFOE
TAF
KFOE 211136Z 2112/2212 10004KT P6SM BKN250
     FM211400 12010KT P6SM BKN050
     FM212100 11010KT P6SM VCTS BKN050CB
     FM220200 12005KT P6SM BKN050=

USA.gov is the U.S. government's official web portal to all federal, state and local government web resources and services.